Time;durP1;ratioP1;P1;durP2;ratioP2;P2;SDS_P1;SDS_P2;PMS_P1;PMS_P2;Temp;Humidity;BMP_temperature;BMP_pressure;BME280_temperature;BME280_humidity;BME280_pressure;Samples;Min_cycle;Max_cycle;Signal;HPM_P1;HPM_P2
2023/06/24 00:02:27;;;;;;;10.47;9.47;;;17.30;99.90;;;;;;5009044;28;20235;-60
2023/06/24 00:05:00;;;;;;;11.33;9.70;;;17.20;99.90;;;;;;5009591;28;20230;-61
2023/06/24 00:07:28;;;;;;;10.67;9.63;;;17.20;99.90;;;;;;5009488;28;20232;-60
2023/06/24 00:09:57;;;;;;;10.73;9.63;;;17.20;99.90;;;;;;5009587;28;20306;-59
2023/06/24 00:12:25;;;;;;;10.90;9.80;;;17.20;99.90;;;;;;5009251;28;20218;-60
2023/06/24 00:14:54;;;;;;;11.93;9.63;;;17.20;99.90;;;;;;5009585;28;20220;-61
2023/06/24 00:17:22;;;;;;;11.90;9.87;;;17.20;99.90;;;;;;5009525;28;20313;-60
2023/06/24 00:19:54;;;;;;;11.87;10.77;;;17.20;99.90;;;;;;5011672;28;20702;-61
2023/06/24 00:22:23;;;;;;;11.43;10.43;;;17.10;99.90;;;;;;5014633;28;20231;-60
2023/06/24 00:24:51;;;;;;;11.73;10.60;;;17.10;99.90;;;;;;5008822;28;20329;-61
2023/06/24 00:27:19;;;;;;;12.90;10.73;;;17.10;99.90;;;;;;5009150;28;20227;-60
2023/06/24 00:29:47;;;;;;;12.20;10.87;;;17.00;99.90;;;;;;5011560;28;20225;-60
2023/06/24 00:32:16;;;;;;;11.93;10.63;;;17.00;99.90;;;;;;5008668;28;20740;-60
2023/06/24 00:34:45;;;;;;;12.00;10.70;;;17.00;99.90;;;;;;5004760;28;20759;-60
2023/06/24 00:37:13;;;;;;;14.10;11.53;;;17.00;99.90;;;;;;4996028;28;20236;-61
2023/06/24 00:39:41;;;;;;;12.37;10.67;;;17.00;99.90;;;;;;4995802;28;20219;-60
2023/06/24 00:42:09;;;;;;;14.03;11.10;;;17.00;99.90;;;;;;4995678;28;20226;-60
2023/06/24 00:44:39;;;;;;;12.50;11.17;;;16.90;99.90;;;;;;4995971;28;20238;-60
2023/06/24 00:47:09;;;;;;;12.17;10.70;;;16.90;99.90;;;;;;4995865;28;20226;-60
2023/06/24 00:49:38;;;;;;;12.53;11.20;;;16.90;99.90;;;;;;4996409;28;20228;-60
2023/06/24 00:52:10;;;;;;;14.23;11.90;;;16.80;99.90;;;;;;4976342;28;20302;-61
2023/06/24 00:54:38;;;;;;;13.47;12.20;;;16.80;99.90;;;;;;5021364;28;20220;-61
2023/06/24 00:57:07;;;;;;;13.23;11.90;;;16.80;99.90;;;;;;4995380;28;20239;-60
2023/06/24 00:59:36;;;;;;;12.97;11.67;;;16.80;99.90;;;;;;5029205;28;20231;-60
2023/06/24 01:02:05;;;;;;;12.47;11.27;;;16.70;99.90;;;;;;4993219;28;20318;-61
2023/06/24 01:04:35;;;;;;;13.60;12.00;;;16.70;99.90;;;;;;4995337;28;20249;-61
2023/06/24 01:07:06;;;;;;;13.03;11.63;;;16.70;99.90;;;;;;4995540;28;20238;-60
2023/06/24 01:09:37;;;;;;;12.87;11.57;;;16.70;99.90;;;;;;5010407;28;20610;-60
2023/06/24 01:12:07;;;;;;;15.33;12.83;;;16.70;99.90;;;;;;4995391;28;20222;-61
2023/06/24 01:14:36;;;;;;;13.13;11.83;;;16.60;99.90;;;;;;4995145;28;20345;-61
2023/06/24 01:17:10;;;;;;;13.27;12.00;;;16.60;99.90;;;;;;4995104;28;20682;-60
2023/06/24 01:19:54;;;;;;;12.97;11.67;;;16.60;99.90;;;;;;4995750;28;20248;-60
2023/06/24 01:22:46;;;;;;;13.17;11.77;;;16.60;99.90;;;;;;4994923;28;20591;-60
2023/06/24 01:26:02;;;;;;;14.03;12.53;;;16.60;99.90;;;;;;4994813;28;20233;-61
2023/06/24 01:28:59;;;;;;;14.97;13.47;;;16.60;99.90;;;;;;4993195;28;20230;-60
2023/06/24 01:31:35;;;;;;;14.30;12.90;;;16.60;99.90;;;;;;4996879;28;20572;-60
2023/06/24 01:34:13;;;;;;;13.77;12.23;;;16.50;99.90;;;;;;4995047;28;20777;-60
2023/06/24 01:36:51;;;;;;;17.77;13.03;;;16.50;99.90;;;;;;4994609;28;20764;-61
2023/06/24 01:39:22;;;;;;;14.43;12.90;;;16.50;99.90;;;;;;4993837;28;20261;-61
2023/06/24 01:41:56;;;;;;;14.17;12.33;;;16.50;99.90;;;;;;4994890;28;20265;-61
2023/06/24 01:44:26;;;;;;;14.10;12.77;;;16.50;99.90;;;;;;5026078;28;20605;-60
2023/06/24 01:46:58;;;;;;;13.73;12.30;;;16.40;99.90;;;;;;4993913;28;20309;-61
2023/06/24 01:49:30;;;;;;;14.20;12.70;;;16.50;99.90;;;;;;4995298;28;20636;-61
2023/06/24 01:52:01;;;;;;;13.33;11.93;;;16.50;99.90;;;;;;4994625;28;20233;-60
2023/06/24 01:54:30;;;;;;;14.00;12.67;;;16.50;99.90;;;;;;5002325;28;20301;-61
2023/06/24 01:57:00;;;;;;;14.63;13.13;;;16.40;99.90;;;;;;4993124;28;20237;-61
2023/06/24 01:59:30;;;;;;;13.47;12.07;;;16.40;99.90;;;;;;5009164;28;20322;-61
2023/06/24 02:02:03;;;;;;;14.27;12.77;;;16.40;99.90;;;;;;4992498;28;20296;-61
2023/06/24 02:04:32;;;;;;;14.93;12.87;;;16.40;99.90;;;;;;4993005;28;20729;-61
2023/06/24 02:07:02;;;;;;;14.63;11.83;;;16.40;99.90;;;;;;4994442;28;20312;-61
2023/06/24 02:09:32;;;;;;;12.77;11.57;;;16.30;99.90;;;;;;4992858;28;20322;-60
2023/06/24 02:12:03;;;;;;;13.03;11.83;;;16.30;99.90;;;;;;4994309;28;20226;-60
2023/06/24 02:14:32;;;;;;;13.00;11.70;;;16.20;99.90;;;;;;4992371;28;20230;-60
2023/06/24 02:17:05;;;;;;;12.87;11.57;;;16.20;99.90;;;;;;5001787;28;20223;-60
2023/06/24 02:19:36;;;;;;;13.40;12.00;;;16.20;99.90;;;;;;4993442;28;20225;-61
2023/06/24 02:22:09;;;;;;;13.83;12.43;;;16.20;99.90;;;;;;4989695;28;20263;-61
2023/06/24 02:24:39;;;;;;;12.40;11.20;;;16.20;99.90;;;;;;4987747;28;20324;-61
2023/06/24 02:27:09;;;;;;;13.83;12.43;;;16.20;99.90;;;;;;4993974;28;20305;-61
2023/06/24 02:29:40;;;;;;;13.33;12.00;;;16.20;99.90;;;;;;4992241;28;20236;-61
2023/06/24 02:32:10;;;;;;;14.00;12.50;;;16.10;99.90;;;;;;4993515;28;20226;-61
2023/06/24 02:34:38;;;;;;;13.23;11.97;;;16.10;99.90;;;;;;4993812;28;20268;-61
2023/06/24 02:37:06;;;;;;;13.97;12.47;;;16.10;99.90;;;;;;4993883;28;20257;-61
2023/06/24 02:39:35;;;;;;;13.93;12.53;;;16.00;99.90;;;;;;4993740;28;20246;-61
2023/06/24 02:42:03;;;;;;;13.53;12.23;;;16.00;99.90;;;;;;4993846;28;20309;-61
2023/06/24 02:44:33;;;;;;;14.90;12.43;;;16.00;99.90;;;;;;4992061;28;20226;-61
2023/06/24 02:47:01;;;;;;;14.23;12.93;;;16.00;99.90;;;;;;4992495;28;20782;-60
2023/06/24 02:49:32;;;;;;;14.13;12.87;;;16.00;99.90;;;;;;4994252;28;20264;-61
2023/06/24 02:52:00;;;;;;;17.33;14.20;;;16.00;99.90;;;;;;5008448;28;20598;-61
2023/06/24 02:54:29;;;;;;;14.77;13.30;;;16.00;99.90;;;;;;4994866;28;20223;-61
2023/06/24 02:57:34;;;;;;;14.10;12.60;;;15.90;99.90;;;;;;4988663;28;20274;-61
2023/06/24 03:00:23;;;;;;;16.30;13.47;;;15.90;99.90;;;;;;4992675;28;20222;-61
2023/06/24 03:03:13;;;;;;;15.43;13.77;;;15.90;99.90;;;;;;4992146;28;20241;-61
2023/06/24 03:05:56;;;;;;;14.80;13.37;;;15.90;99.90;;;;;;4992146;28;20244;-61
2023/06/24 03:08:26;;;;;;;14.33;12.90;;;15.90;99.90;;;;;;4991986;28;20739;-61
2023/06/24 03:10:56;;;;;;;14.00;12.60;;;15.90;99.90;;;;;;4993173;28;20222;-61
2023/06/24 03:13:26;;;;;;;14.70;13.13;;;15.90;99.90;;;;;;4991978;28;20289;-61
2023/06/24 03:16:02;;;;;;;15.37;13.77;;;15.90;99.90;;;;;;4991735;28;20226;-61
2023/06/24 03:18:35;;;;;;;13.47;12.27;;;15.90;99.90;;;;;;5008186;28;20234;-61
2023/06/24 03:21:06;;;;;;;15.50;13.97;;;15.90;99.90;;;;;;5008347;28;20227;-60
2023/06/24 03:23:34;;;;;;;16.73;13.97;;;15.90;99.90;;;;;;5010418;28;20245;-61
2023/06/24 03:26:03;;;;;;;14.63;13.13;;;15.90;99.90;;;;;;4991627;28;20706;-61
2023/06/24 03:28:31;;;;;;;14.63;13.00;;;16.00;99.90;;;;;;4993000;28;20684;-60
2023/06/24 03:31:09;;;;;;;13.60;11.87;;;16.00;99.90;;;;;;4990807;28;20235;-60
2023/06/24 03:33:44;;;;;;;13.93;12.53;;;16.00;99.90;;;;;;4992950;28;20224;-61
2023/06/24 03:36:15;;;;;;;14.83;13.10;;;16.00;99.90;;;;;;4991885;28;20232;-61
2023/06/24 03:38:44;;;;;;;14.77;12.27;;;16.10;99.90;;;;;;4991628;28;20269;-61
2023/06/24 03:41:12;;;;;;;13.57;12.27;;;16.10;99.90;;;;;;4993107;28;20315;-61
2023/06/24 03:43:41;;;;;;;13.53;12.20;;;16.10;99.90;;;;;;4992761;28;20224;-60
2023/06/24 03:46:09;;;;;;;13.17;11.77;;;16.20;99.90;;;;;;5024339;28;20284;-61
2023/06/24 03:48:40;;;;;;;14.13;12.73;;;16.30;99.90;;;;;;4992887;28;20223;-61
2023/06/24 03:51:08;;;;;;;13.17;11.97;;;16.40;99.90;;;;;;4991740;28;20247;-61
2023/06/24 03:53:39;;;;;;;15.07;13.53;;;16.40;99.90;;;;;;4994232;28;20238;-61
2023/06/24 03:56:07;;;;;;;14.30;12.87;;;16.50;99.90;;;;;;4991586;28;20226;-61
2023/06/24 03:58:35;;;;;;;13.83;12.13;;;16.50;99.90;;;;;;4992796;28;20230;-61
2023/06/24 04:01:04;;;;;;;13.40;12.10;;;16.60;99.90;;;;;;4992094;28;20226;-61
2023/06/24 04:03:32;;;;;;;14.50;13.00;;;16.70;99.90;;;;;;4992735;28;20234;-62
2023/06/24 04:06:02;;;;;;;15.70;12.93;;;16.70;99.90;;;;;;4991540;28;20681;-61
2023/06/24 04:08:30;;;;;;;14.60;13.10;;;16.90;99.90;;;;;;5007782;28;20328;-61
2023/06/24 04:11:03;;;;;;;14.80;13.30;;;17.00;99.90;;;;;;4993835;28;20231;-61
2023/06/24 04:13:31;;;;;;;16.27;14.57;;;17.10;99.90;;;;;;5002958;28;20236;-61
2023/06/24 04:16:02;;;;;;;14.10;12.70;;;17.20;99.90;;;;;;4994828;28;20633;-61
2023/06/24 04:18:30;;;;;;;14.00;12.50;;;17.30;99.90;;;;;;4996285;28;20219;-61
2023/06/24 04:20:58;;;;;;;16.10;13.27;;;17.40;99.90;;;;;;4995084;28;20276;-61
2023/06/24 04:23:26;;;;;;;13.93;12.63;;;17.40;99.90;;;;;;4996052;28;20249;-61
2023/06/24 04:25:54;;;;;;;15.13;13.57;;;17.50;99.90;;;;;;4995821;28;20597;-60
2023/06/24 04:28:24;;;;;;;14.17;12.80;;;17.50;99.90;;;;;;4994791;28;20255;-61
2023/06/24 04:30:52;;;;;;;14.07;12.57;;;17.60;99.90;;;;;;4994860;28;20239;-61
2023/06/24 04:33:21;;;;;;;14.63;12.90;;;17.70;99.90;;;;;;4994825;28;20285;-60
2023/06/24 04:35:51;;;;;;;14.20;12.70;;;17.80;99.90;;;;;;4994113;28;20234;-60
2023/06/24 04:38:20;;;;;;;16.90;13.80;;;17.80;99.90;;;;;;5011177;28;20257;-60
2023/06/24 04:40:49;;;;;;;14.63;13.20;;;17.80;99.90;;;;;;4996982;28;20242;-61
2023/06/24 04:43:17;;;;;;;13.70;12.30;;;17.90;99.90;;;;;;4995149;28;20223;-60
2023/06/24 04:45:46;;;;;;;14.47;13.07;;;18.00;99.90;;;;;;4995333;28;20266;-60
2023/06/24 04:48:14;;;;;;;13.63;12.23;;;18.00;99.90;;;;;;5027482;28;20327;-60
2023/06/24 04:50:42;;;;;;;14.23;12.83;;;18.10;99.90;;;;;;4995642;28;20248;-60
2023/06/24 04:53:10;;;;;;;14.47;13.07;;;18.20;99.90;;;;;;4995758;28;20247;-61
2023/06/24 04:55:38;;;;;;;14.13;12.73;;;18.20;99.90;;;;;;4998044;28;20223;-60
2023/06/24 04:58:07;;;;;;;15.10;12.60;;;18.30;99.90;;;;;;4994958;28;20247;-61
2023/06/24 05:00:35;;;;;;;14.80;13.40;;;18.40;99.90;;;;;;4994646;28;20653;-61
2023/06/24 05:03:05;;;;;;;13.97;12.60;;;18.40;99.90;;;;;;4995347;28;20228;-60
2023/06/24 05:05:33;;;;;;;15.90;14.17;;;18.60;99.90;;;;;;4995461;28;20220;-61
2023/06/24 05:08:03;;;;;;;15.53;13.93;;;18.70;99.90;;;;;;4995519;28;20225;-60
2023/06/24 05:10:31;;;;;;;15.20;13.17;;;18.90;99.90;;;;;;4995339;28;20587;-61
2023/06/24 05:12:59;;;;;;;13.70;12.30;;;18.90;99.90;;;;;;4995448;28;20225;-61
2023/06/24 05:15:27;;;;;;;15.07;12.97;;;19.00;99.90;;;;;;4995029;28;20235;-61
2023/06/24 05:17:56;;;;;;;13.73;12.27;;;19.00;99.90;;;;;;4994803;28;20225;-61
2023/06/24 05:20:26;;;;;;;15.33;13.80;;;19.00;99.90;;;;;;5002830;28;20236;-60
2023/06/24 05:22:55;;;;;;;12.87;11.47;;;18.90;99.90;;;;;;4975778;28;20336;-61
2023/06/24 05:25:23;;;;;;;14.53;13.07;;;18.90;99.90;;;;;;4995222;28;20235;-59
2023/06/24 05:27:51;;;;;;;15.03;12.90;;;18.90;99.90;;;;;;5004180;28;20696;-61
2023/06/24 05:30:20;;;;;;;13.67;12.37;;;19.10;99.90;;;;;;5006788;28;20312;-61
2023/06/24 05:32:48;;;;;;;14.43;12.90;;;19.10;99.90;;;;;;4996939;28;20233;-60
2023/06/24 05:35:16;;;;;;;13.67;12.33;;;19.30;99.90;;;;;;4994917;28;20230;-61
2023/06/24 05:37:45;;;;;;;14.43;12.90;;;19.50;99.90;;;;;;5002819;28;20671;-61
2023/06/24 05:40:14;;;;;;;14.30;12.90;;;19.60;99.90;;;;;;4999756;28;20232;-61
2023/06/24 05:42:42;;;;;;;14.73;11.20;;;19.80;99.90;;;;;;5005050;28;20228;-61
2023/06/24 05:45:10;;;;;;;12.53;11.40;;;20.10;99.90;;;;;;5004029;28;20691;-61
2023/06/24 05:47:38;;;;;;;14.57;12.23;;;20.10;99.90;;;;;;4995766;28;20578;-60
2023/06/24 05:50:07;;;;;;;14.17;12.00;;;20.20;99.90;;;;;;4994761;28;20226;-61
2023/06/24 05:52:35;;;;;;;12.07;10.93;;;20.40;99.90;;;;;;4994578;28;20225;-61
2023/06/24 05:55:05;;;;;;;13.30;11.90;;;20.40;99.90;;;;;;4997246;28;20230;-61
2023/06/24 05:57:33;;;;;;;12.77;11.57;;;20.50;99.90;;;;;;4994302;28;20231;-61
2023/06/24 06:00:05;;;;;;;13.80;11.57;;;20.60;99.90;;;;;;4996336;28;20653;-61
2023/06/24 06:02:39;;;;;;;20.23;13.20;;;20.80;99.90;;;;;;4990753;28;20225;-61
2023/06/24 06:05:07;;;;;;;13.93;11.77;;;21.00;99.90;;;;;;4994479;28;20356;-61
2023/06/24 06:07:38;;;;;;;11.53;10.47;;;21.20;99.90;;;;;;4994258;28;20238;-61
2023/06/24 06:10:08;;;;;;;11.70;10.50;;;21.40;99.90;;;;;;4992823;28;20232;-60
2023/06/24 06:12:36;;;;;;;11.87;10.67;;;21.60;99.90;;;;;;4995495;28;20559;-61
2023/06/24 06:15:05;;;;;;;14.73;10.73;;;21.80;99.90;;;;;;5000081;28;20253;-61
2023/06/24 06:17:34;;;;;;;10.40;9.50;;;21.90;99.90;;;;;;4993560;28;20685;-61
2023/06/24 06:20:02;;;;;;;10.93;9.83;;;22.00;99.90;;;;;;4993911;28;20686;-61
2023/06/24 06:22:31;;;;;;;10.13;9.23;;;22.20;99.90;;;;;;4993523;28;20239;-61
2023/06/24 06:24:59;;;;;;;11.50;10.13;;;22.40;99.90;;;;;;4990964;28;20438;-58
2023/06/24 06:27:29;;;;;;;10.13;9.20;;;22.60;99.90;;;;;;4998325;28;20222;-58
2023/06/24 06:29:57;;;;;;;10.10;9.20;;;22.60;99.90;;;;;;4992139;28;20229;-59
2023/06/24 06:32:25;;;;;;;10.37;9.47;;;22.80;99.90;;;;;;4987413;28;20227;-59
2023/06/24 06:34:53;;;;;;;11.67;7.77;;;22.80;99.90;;;;;;4975531;28;20244;-59
2023/06/24 06:37:21;;;;;;;7.50;6.80;;;23.00;99.90;;;;;;4992234;28;20222;-58
2023/06/24 06:39:49;;;;;;;7.43;6.73;;;23.20;99.90;;;;;;4993099;28;20592;-58
2023/06/24 06:42:17;;;;;;;7.90;6.37;;;23.20;99.90;;;;;;4993757;28;20597;-59
2023/06/24 06:44:46;;;;;;;8.47;7.60;;;23.30;99.90;;;;;;4993129;28;20272;-59
2023/06/24 06:47:14;;;;;;;6.97;6.27;;;23.40;99.90;;;;;;4992003;28;20585;-58
2023/06/24 06:49:42;;;;;;;7.90;7.20;;;23.50;99.90;;;;;;4993375;28;20616;-59
2023/06/24 06:52:10;;;;;;;7.83;7.00;;;23.80;99.90;;;;;;4993607;28;20237;-59
2023/06/24 06:54:38;;;;;;;7.27;6.27;;;24.00;99.90;;;;;;4996074;28;20584;-58
2023/06/24 06:57:07;;;;;;;9.73;8.67;;;24.20;99.90;;;;;;4992024;28;20246;-58
2023/06/24 06:59:35;;;;;;;7.57;6.77;;;24.40;99.90;;;;;;4989151;28;20705;-59
2023/06/24 07:02:04;;;;;;;7.33;6.30;;;24.50;99.90;;;;;;4992196;28;20230;-58
2023/06/24 07:04:32;;;;;;;6.57;5.97;;;24.60;99.90;;;;;;4999835;28;20216;-58
2023/06/24 07:07:00;;;;;;;7.77;7.07;;;24.90;99.90;;;;;;5001997;28;20612;-58
2023/06/24 07:09:28;;;;;;;8.10;7.30;;;25.00;99.90;;;;;;4975502;28;20220;-59
2023/06/24 07:11:56;;;;;;;7.20;6.60;;;25.00;99.90;;;;;;4992444;28;20229;-59
2023/06/24 07:14:24;;;;;;;8.70;7.90;;;25.10;99.90;;;;;;5000009;28;20295;-58
2023/06/24 07:16:52;;;;;;;6.30;5.63;;;25.10;99.90;;;;;;5000807;28;20224;-58
2023/06/24 07:19:22;;;;;;;6.80;6.00;;;25.10;99.90;;;;;;5001668;28;20229;-58
2023/06/24 07:21:50;;;;;;;7.03;6.33;;;25.30;99.90;;;;;;4995358;28;20231;-58
2023/06/24 07:24:18;;;;;;;7.40;6.70;;;25.50;99.90;;;;;;4996552;28;20243;-58
2023/06/24 07:26:46;;;;;;;6.97;6.27;;;25.70;99.90;;;;;;5003430;28;20335;-59
2023/06/24 07:29:14;;;;;;;7.63;5.50;;;25.80;99.90;;;;;;5001240;28;20623;-58
2023/06/24 07:31:42;;;;;;;5.97;4.93;;;26.20;99.90;;;;;;4990571;28;20229;-59
2023/06/24 07:34:10;;;;;;;6.10;5.50;;;26.50;99.90;;;;;;4992426;28;20231;-60
2023/06/24 07:36:39;;;;;;;5.60;5.10;;;26.50;99.90;;;;;;4988351;28;20287;-60
2023/06/24 07:39:07;;;;;;;9.07;6.07;;;26.70;99.90;;;;;;4983667;28;20225;-59
2023/06/24 07:41:35;;;;;;;6.70;6.00;;;26.60;99.90;;;;;;4997503;28;20307;-59
2023/06/24 07:44:04;;;;;;;6.30;5.50;;;26.20;99.90;;;;;;5007026;28;20231;-59
2023/06/24 07:46:32;;;;;;;6.63;5.93;;;26.10;99.90;;;;;;4993739;28;20319;-59
2023/06/24 07:49:00;;;;;;;9.87;5.63;;;26.00;99.90;;;;;;4987096;28;20588;-59
2023/06/24 07:51:28;;;;;;;6.50;5.43;;;25.90;99.90;;;;;;5005016;28;20229;-60
2023/06/24 07:53:57;;;;;;;7.00;5.67;;;26.10;99.90;;;;;;5002870;28;20241;-60
2023/06/24 07:56:25;;;;;;;7.07;6.27;;;26.20;99.90;;;;;;4999090;28;20278;-59
2023/06/24 07:58:54;;;;;;;6.23;5.60;;;26.20;99.90;;;;;;4995851;28;20721;-60
2023/06/24 08:01:22;;;;;;;7.93;7.13;;;26.10;99.90;;;;;;5011419;28;20331;-59
2023/06/24 08:03:50;;;;;;;6.20;5.70;;;25.90;99.90;;;;;;5006982;28;20232;-59
2023/06/24 08:06:18;;;;;;;6.53;5.90;;;25.80;99.90;;;;;;5009620;28;20256;-58
2023/06/24 08:08:47;;;;;;;5.63;5.13;;;26.00;99.90;;;;;;5012144;28;20237;-58
2023/06/24 08:11:16;;;;;;;6.93;5.70;;;26.30;99.90;;;;;;5006435;28;20243;-59
2023/06/24 08:13:44;;;;;;;5.93;5.30;;;27.00;99.90;;;;;;5006059;28;20321;-59
2023/06/24 08:16:12;;;;;;;6.40;5.80;;;27.30;99.90;;;;;;5003151;28;20615;-58
2023/06/24 08:18:40;;;;;;;9.07;5.17;;;27.40;99.90;;;;;;4996601;28;20217;-58
2023/06/24 08:21:08;;;;;;;8.37;5.57;;;27.50;99.90;;;;;;4995592;28;20225;-59
2023/06/24 08:23:36;;;;;;;7.30;4.83;;;27.80;99.90;;;;;;5002202;28;20606;-59
2023/06/24 08:26:04;;;;;;;5.37;4.50;;;28.20;99.90;;;;;;5000614;28;20260;-59
2023/06/24 08:28:47;;;;;;;5.60;4.90;;;28.40;99.90;;;;;;4996054;28;20316;-58
2023/06/24 08:31:15;;;;;;;5.77;5.10;;;28.80;99.90;;;;;;4995904;28;20597;-59
2023/06/24 08:33:45;;;;;;;7.10;5.30;;;28.50;99.90;;;;;;4996129;28;20249;-59
2023/06/24 08:36:13;;;;;;;7.73;5.03;;;28.80;99.90;;;;;;4995894;28;20236;-59
2023/06/24 08:38:41;;;;;;;10.47;5.13;;;28.80;99.90;;;;;;5007537;28;20222;-59
2023/06/24 08:41:09;;;;;;;6.17;4.93;;;28.70;99.90;;;;;;5001588;28;20600;-59
2023/06/24 08:43:38;;;;;;;6.40;5.33;;;28.80;99.90;;;;;;4996461;28;20237;-59
2023/06/24 08:46:09;;;;;;;8.10;6.10;;;29.10;99.90;;;;;;4995963;28;20306;-59
2023/06/24 08:48:40;;;;;;;5.50;5.00;;;29.20;99.90;;;;;;4995762;28;20276;-59
2023/06/24 08:51:09;;;;;;;7.70;5.23;;;29.30;99.90;;;;;;4996730;28;20226;-59
2023/06/24 08:53:39;;;;;;;6.70;6.10;;;29.60;99.90;;;;;;4995681;28;20222;-57
2023/06/24 08:56:07;;;;;;;7.53;6.20;;;29.60;99.90;;;;;;4995647;28;20304;-59
2023/06/24 08:58:35;;;;;;;8.87;5.77;;;29.50;99.90;;;;;;4995656;28;20246;-59
2023/06/24 09:01:04;;;;;;;6.13;4.83;;;29.50;99.90;;;;;;4997939;28;20241;-57
2023/06/24 09:03:33;;;;;;;8.40;5.57;;;29.80;99.90;;;;;;4995841;28;20233;-59
2023/06/24 09:06:01;;;;;;;8.37;5.70;;;29.80;99.90;;;;;;4996052;28;20241;-59
2023/06/24 09:08:30;;;;;;;7.90;6.07;;;29.90;99.90;;;;;;4992859;28;20221;-59
2023/06/24 09:10:58;;;;;;;7.80;6.33;;;30.10;99.90;;;;;;4999460;28;20221;-58
2023/06/24 09:13:34;;;;;;;8.20;5.37;;;29.90;99.90;;;;;;5000983;28;20578;-60
2023/06/24 09:16:13;;;;;;;7.10;5.93;;;29.90;99.90;;;;;;4996073;28;20671;-59
2023/06/24 09:18:42;;;;;;;6.03;4.30;;;30.10;99.90;;;;;;5003862;28;20304;-59
2023/06/24 09:21:12;;;;;;;6.63;5.93;;;30.40;99.90;;;;;;5011916;28;20318;-58
2023/06/24 09:23:40;;;;;;;6.33;5.07;;;30.70;99.90;;;;;;5012066;28;20243;-59
2023/06/24 09:26:12;;;;;;;8.57;5.90;;;30.80;99.90;;;;;;5001006;28;20227;-59
2023/06/24 09:28:40;;;;;;;8.97;4.70;;;31.30;99.90;;;;;;5001232;28;20772;-57
2023/06/24 09:31:09;;;;;;;6.30;4.57;;;31.70;99.90;;;;;;4996256;28;20232;-59
2023/06/24 09:33:42;;;;;;;6.70;5.77;;;32.00;99.90;;;;;;4986578;28;20679;-59
2023/06/24 09:36:12;;;;;;;7.20;6.47;;;31.90;99.90;;;;;;4977889;28;20229;-59
2023/06/24 09:38:44;;;;;;;7.63;5.55;;;31.70;99.90;;;;;;4981170;28;20432;-59
2023/06/24 09:41:12;;;;;;;5.43;4.53;;;31.50;99.90;;;;;;4989099;28;20258;-59
2023/06/24 09:43:44;;;;;;;6.20;5.60;;;31.50;99.90;;;;;;4990206;28;20686;-58
2023/06/24 09:46:12;;;;;;;9.57;6.47;;;31.00;99.90;;;;;;4995736;28;20632;-59
2023/06/24 09:48:43;;;;;;;5.37;4.80;;;31.20;99.90;;;;;;4995657;28;20626;-58
2023/06/24 09:51:13;;;;;;;6.23;5.60;;;31.40;99.90;;;;;;4991678;28;20223;-59
2023/06/24 09:53:42;;;;;;;4.87;4.33;;;31.40;99.90;;;;;;4994009;28;20310;-59
2023/06/24 09:56:11;;;;;;;4.87;4.33;;;31.20;99.90;;;;;;4991527;28;20229;-59
2023/06/24 09:58:42;;;;;;;4.20;3.67;;;31.60;99.90;;;;;;4991516;28;20227;-60
2023/06/24 10:01:11;;;;;;;7.70;4.20;;;31.90;99.90;;;;;;5013434;28;20287;-58
2023/06/24 10:03:39;;;;;;;5.47;5.07;;;32.20;99.90;;;;;;5009079;28;20291;-57
2023/06/24 10:06:09;;;;;;;5.47;4.37;;;32.30;99.90;;;;;;5010697;28;20228;-59
2023/06/24 10:08:37;;;;;;;6.77;4.10;;;32.30;99.90;;;;;;5009528;28;20232;-61
2023/06/24 10:11:05;;;;;;;5.37;4.53;;;32.70;99.90;;;;;;5001684;28;20236;-61
2023/06/24 10:13:33;;;;;;;8.27;4.40;;;33.00;99.90;;;;;;5001255;28;20224;-59
2023/06/24 10:16:01;;;;;;;8.03;4.60;;;33.00;99.90;;;;;;5009656;28;20257;-61
2023/06/24 10:18:34;;;;;;;6.70;3.90;;;32.40;99.90;;;;;;5006449;28;20228;-65
2023/06/24 10:21:03;;;;;;;7.53;4.33;;;32.20;99.90;;;;;;5006051;28;20268;-60
2023/06/24 10:23:39;;;;;;;6.47;4.13;;;32.00;99.90;;;;;;4997858;28;20770;-61
2023/06/24 10:26:10;;;;;;;5.33;3.93;;;31.90;99.90;;;;;;5016622;28;20698;-61
2023/06/24 10:29:10;;;;;;;6.93;4.33;;;32.00;99.90;;;;;;5015682;28;20238;-62
2023/06/24 10:31:55;;;;;;;6.97;4.17;;;31.90;99.90;;;;;;5006442;28;20322;-60
2023/06/24 10:34:30;;;;;;;5.87;4.80;;;32.00;99.90;;;;;;5014483;28;20310;-57
2023/06/24 10:37:00;;;;;;;10.57;4.33;;;32.50;99.90;;;;;;5024984;28;20590;-60
2023/06/24 10:39:57;;;;;;;5.33;4.10;;;32.70;99.90;;;;;;5022369;28;20597;-59
2023/06/24 10:42:29;;;;;;;4.73;3.63;;;32.80;99.90;;;;;;4979045;28;20612;-59
2023/06/24 10:44:58;;;;;;;4.23;3.73;;;32.60;99.90;;;;;;5013390;28;20682;-59
2023/06/24 10:47:28;;;;;;;5.87;4.10;;;32.70;99.90;;;;;;5013335;28;20228;-58
2023/06/24 10:49:57;;;;;;;3.97;3.57;;;32.90;99.90;;;;;;5021457;28;20242;-58
2023/06/24 10:52:25;;;;;;;5.13;4.47;;;33.50;99.90;;;;;;5017016;28;20774;-59
2023/06/24 10:54:54;;;;;;;3.83;3.30;;;33.60;97.70;;;;;;5020073;28;20221;-60
2023/06/24 10:57:25;;;;;;;3.87;3.57;;;33.10;99.90;;;;;;5016891;28;20303;-61
2023/06/24 10:59:55;;;;;;;3.77;3.30;;;32.90;99.90;;;;;;5013195;28;20228;-61
2023/06/24 11:02:24;;;;;;;4.37;3.70;;;33.10;99.90;;;;;;5012766;28;20314;-61
2023/06/24 11:04:54;;;;;;;3.90;3.50;;;33.50;99.90;;;;;;5005350;28;20222;-60
2023/06/24 11:07:23;;;;;;;6.00;3.60;;;33.00;99.90;;;;;;5004057;28;20315;-61
2023/06/24 11:09:53;;;;;;;6.40;4.10;;;32.10;99.90;;;;;;5007884;28;20229;-60
2023/06/24 11:12:26;;;;;;;5.27;3.80;;;31.70;99.90;;;;;;5011569;28;20637;-60
2023/06/24 11:14:57;;;;;;;4.73;3.83;;;32.00;99.90;;;;;;5013298;28;20322;-61
2023/06/24 11:17:26;;;;;;;4.87;3.93;;;32.00;99.90;;;;;;5007713;28;20230;-57
2023/06/24 11:19:54;;;;;;;5.27;4.10;;;32.30;99.90;;;;;;5016559;28;20222;-58
2023/06/24 11:22:23;;;;;;;6.10;3.73;;;32.40;99.90;;;;;;5004353;28;20774;-62
2023/06/24 11:24:52;;;;;;;6.60;4.10;;;31.80;99.90;;;;;;5016140;28;20270;-61
2023/06/24 11:27:27;;;;;;;5.97;4.20;;;31.10;99.90;;;;;;5020674;28;20683;-62
2023/06/24 11:29:58;;;;;;;5.80;3.87;;;31.00;99.90;;;;;;5020303;28;20220;-62
2023/06/24 11:32:35;;;;;;;5.90;3.93;;;31.60;99.90;;;;;;5019240;28;20234;-61
2023/06/24 11:35:04;;;;;;;4.50;3.80;;;32.40;99.90;;;;;;5020341;28;20218;-61
2023/06/24 11:37:33;;;;;;;5.13;3.70;;;33.30;99.90;;;;;;5017889;28;20243;-61
2023/06/24 11:40:05;;;;;;;3.40;3.10;;;33.90;99.90;;;;;;5021138;28;20304;-62
2023/06/24 11:42:38;;;;;;;4.00;3.20;;;33.70;98.70;;;;;;5022620;28;20224;-62
2023/06/24 11:45:08;;;;;;;3.60;3.30;;;33.60;99.00;;;;;;5021993;28;20634;-62
2023/06/24 11:47:37;;;;;;;4.13;3.73;;;33.60;98.10;;;;;;5018625;28;20229;-61
2023/06/24 11:50:07;;;;;;;4.20;3.30;;;33.50;98.30;;;;;;5020737;28;20764;-61
2023/06/24 11:52:43;;;;;;;5.10;3.27;;;33.20;99.60;;;;;;5020655;28;20786;-62
2023/06/24 11:55:18;;;;;;;4.03;3.30;;;33.50;99.90;;;;;;5015212;28;20688;-61
2023/06/24 11:57:55;;;;;;;4.30;3.50;;;33.90;98.60;;;;;;5023516;28;20706;-61
2023/06/24 12:00:24;;;;;;;3.97;3.57;;;33.30;98.50;;;;;;5019110;28;20247;-61
2023/06/24 12:02:55;;;;;;;5.57;3.00;;;32.60;99.40;;;;;;5024182;28;20721;-62
2023/06/24 12:05:29;;;;;;;4.37;3.33;;;31.90;99.50;;;;;;5020147;28;20927;-62
2023/06/24 12:07:58;;;;;;;3.87;3.40;;;31.40;99.90;;;;;;5024262;28;20592;-62
2023/06/24 12:10:28;;;;;;;4.90;3.93;;;31.00;99.90;;;;;;5017423;28;20244;-61
2023/06/24 12:12:59;;;;;;;4.00;3.50;;;30.60;99.90;;;;;;5012951;28;20708;-62
2023/06/24 12:15:27;;;;;;;5.03;3.67;;;30.70;99.90;;;;;;5019892;28;20647;-61
2023/06/24 12:17:55;;;;;;;3.70;3.40;;;31.00;99.90;;;;;;5017644;28;20247;-62
2023/06/24 12:20:25;;;;;;;4.40;3.70;;;31.20;99.90;;;;;;5019607;28;20232;-61
2023/06/24 12:22:57;;;;;;;4.17;3.77;;;31.20;99.90;;;;;;5016158;28;20334;-61
2023/06/24 12:25:26;;;;;;;4.30;3.40;;;30.80;99.90;;;;;;5009724;28;20228;-61
2023/06/24 12:27:53;;;;;;;4.53;3.23;;;30.60;99.90;;;;;;5012910;28;20615;-61
2023/06/24 12:30:23;;;;;;;4.00;3.50;;;30.50;99.90;;;;;;5015602;28;20284;-61
2023/06/24 12:32:52;;;;;;;4.70;4.00;;;30.40;99.90;;;;;;5015714;28;20220;-61
2023/06/24 12:35:20;;;;;;;4.50;3.43;;;30.40;99.90;;;;;;5014662;28;21020;-61
2023/06/24 12:37:48;;;;;;;4.10;3.50;;;30.50;99.90;;;;;;5015577;28;20227;-61
2023/06/24 12:40:17;;;;;;;6.03;3.53;;;30.80;99.90;;;;;;5025046;28;20276;-61
2023/06/24 12:42:45;;;;;;;3.87;3.20;;;30.80;99.90;;;;;;5029463;28;20261;-61
2023/06/24 12:45:13;;;;;;;4.97;3.60;;;30.60;99.90;;;;;;5021590;28;20699;-61
2023/06/24 12:47:42;;;;;;;4.63;3.60;;;30.80;99.90;;;;;;5024540;28;20303;-61
2023/06/24 12:50:11;;;;;;;5.20;3.87;;;30.80;99.90;;;;;;5008652;28;20266;-60
2023/06/24 12:52:39;;;;;;;7.10;3.40;;;30.60;99.90;;;;;;5008722;28;20351;-61
2023/06/24 12:55:08;;;;;;;4.83;3.60;;;30.30;99.90;;;;;;5004127;28;20730;-59